AAL144 KMCO-KCRP
Flight info
| Callsign | AAL144 |
|---|---|
| Flight time | 2h 18m |
| Altitude | 34000 |
| Route | OSPRY1 REMIS HOOCK BOGGY MUSYL HYNES |
| Aircraft | A321/M-VGDW/C |
Departure
| Time | 2026-05-07 18:39 |
|---|---|
| Airport | Orlando International Airport (KMCO) |
Arrival
| Time | 2026-05-07 20:58 |
|---|---|
| Airport | Corpus Christi International Airport (KCRP) |
| Time | Latitude | Longitude | Altitude | Speed | Heading |
|---|---|---|---|---|---|
| 2026-05-07 18:29 | 28.42901 | -81.31535 | 108 ft | 0 kts | 216° |
| 2026-05-07 18:33 | 28.42904 | -81.31532 | 108 ft | 2 kts | 216° |
| 2026-05-07 18:33 | 28.42918 | -81.31521 | 108 ft | 3 kts | 216° |
| 2026-05-07 18:33 | 28.42933 | -81.31508 | 108 ft | 3 kts | 216° |
| 2026-05-07 18:33 | 28.42950 | -81.31494 | 108 ft | 3 kts | 216° |
| 2026-05-07 18:34 | 28.42958 | -81.31487 | 108 ft | 0 kts | 216° |
| 2026-05-07 18:34 | 28.42957 | -81.31488 | 108 ft | 1 kts | 216° |
| 2026-05-07 18:35 | 28.42946 | -81.31523 | 108 ft | 12 kts | 262° |
| 2026-05-07 18:35 | 28.42948 | -81.31649 | 108 ft | 19 kts | 283° |
| 2026-05-07 18:35 | 28.42995 | -81.31781 | 108 ft | 19 kts | 298° |
| 2026-05-07 18:35 | 28.43078 | -81.31927 | 108 ft | 26 kts | 303° |
| 2026-05-07 18:36 | 28.43220 | -81.32039 | 108 ft | 26 kts | 359° |
| 2026-05-07 18:36 | 28.43419 | -81.32041 | 108 ft | 31 kts | 359° |
| 2026-05-07 18:36 | 28.43645 | -81.32043 | 108 ft | 34 kts | 359° |
| 2026-05-07 18:36 | 28.43894 | -81.32046 | 108 ft | 37 kts | 354° |
| 2026-05-07 18:37 | 28.44128 | -81.32060 | 108 ft | 34 kts | 358° |
| 2026-05-07 18:37 | 28.44377 | -81.32065 | 108 ft | 37 kts | 0° |
| 2026-05-07 18:37 | 28.44621 | -81.32064 | 108 ft | 34 kts | 0° |
| 2026-05-07 18:37 | 28.44801 | -81.32089 | 108 ft | 12 kts | 306° |
| 2026-05-07 18:38 | 28.44809 | -81.32202 | 108 ft | 16 kts | 235° |
| 2026-05-07 18:38 | 28.44739 | -81.32230 | 108 ft | 22 kts | 182° |
| 2026-05-07 18:38 | 28.44385 | -81.32234 | 108 ft | 81 kts | 180° |
| 2026-05-07 18:38 | 28.43621 | -81.32223 | 108 ft | 136 kts | 179° |
| 2026-05-07 18:39 | 28.42940 | -81.32208 | 239 ft | 150 kts | 179° |
| 2026-05-07 18:39 | 28.41970 | -81.32170 | 1046 ft | 136 kts | 177° |
| 2026-05-07 18:39 | 28.40970 | -81.32214 | 1565 ft | 153 kts | 185° |
| 2026-05-07 18:39 | 28.39306 | -81.32503 | 2105 ft | 211 kts | 189° |
| 2026-05-07 18:40 | 28.38288 | -81.32663 | 2379 ft | 225 kts | 187° |
| 2026-05-07 18:40 | 28.36691 | -81.32921 | 2830 ft | 239 kts | 193° |
| 2026-05-07 18:40 | 28.35231 | -81.33865 | 3269 ft | 249 kts | 221° |
| 2026-05-07 18:40 | 28.34312 | -81.35552 | 3739 ft | 258 kts | 249° |
| 2026-05-07 18:41 | 28.34121 | -81.36294 | 3932 ft | 260 kts | 255° |
| 2026-05-07 18:41 | 28.33786 | -81.38298 | 4394 ft | 262 kts | 262° |
| 2026-05-07 18:41 | 28.33529 | -81.40349 | 4847 ft | 261 kts | 264° |
| 2026-05-07 18:41 | 28.33288 | -81.42384 | 5298 ft | 260 kts | 264° |
| 2026-05-07 18:42 | 28.33048 | -81.44404 | 5798 ft | 255 kts | 264° |
| 2026-05-07 18:42 | 28.32816 | -81.46391 | 6427 ft | 251 kts | 263° |
| 2026-05-07 18:42 | 28.32603 | -81.48355 | 7053 ft | 251 kts | 264° |
| 2026-05-07 18:42 | 28.32415 | -81.50318 | 7678 ft | 251 kts | 264° |
| 2026-05-07 18:43 | 28.32245 | -81.52295 | 8305 ft | 251 kts | 265° |
| 2026-05-07 18:43 | 28.32082 | -81.54271 | 8931 ft | 253 kts | 265° |
| 2026-05-07 18:43 | 28.31919 | -81.56271 | 9559 ft | 255 kts | 265° |
| 2026-05-07 18:43 | 28.31758 | -81.58258 | 10179 ft | 257 kts | 265° |
| 2026-05-07 18:44 | 28.31593 | -81.60308 | 10813 ft | 259 kts | 265° |
| 2026-05-07 18:44 | 28.31430 | -81.62330 | 11433 ft | 261 kts | 265° |
| 2026-05-07 18:44 | 28.31263 | -81.64399 | 12063 ft | 264 kts | 265° |
| 2026-05-07 18:44 | 28.31095 | -81.66506 | 12697 ft | 275 kts | 265° |
| 2026-05-07 18:45 | 28.30919 | -81.68718 | 13333 ft | 288 kts | 265° |
| 2026-05-07 18:45 | 28.30735 | -81.71036 | 13968 ft | 301 kts | 265° |
| 2026-05-07 18:45 | 28.30544 | -81.73458 | 14604 ft | 313 kts | 265° |
| 2026-05-07 18:45 | 28.30348 | -81.75959 | 15237 ft | 324 kts | 265° |
| 2026-05-07 18:46 | 28.30147 | -81.78538 | 15868 ft | 334 kts | 265° |
| 2026-05-07 18:46 | 28.29940 | -81.81205 | 16501 ft | 343 kts | 265° |
| 2026-05-07 18:46 | 28.29731 | -81.83917 | 17128 ft | 348 kts | 265° |
| 2026-05-07 18:46 | 28.29430 | -81.86675 | 17760 ft | 353 kts | 261° |
| 2026-05-07 18:47 | 28.28974 | -81.89425 | 18390 ft | 357 kts | 259° |
| 2026-05-07 18:47 | 28.28452 | -81.92165 | 19013 ft | 361 kts | 258° |
| 2026-05-07 18:47 | 28.27888 | -81.94962 | 19641 ft | 365 kts | 258° |
| 2026-05-07 18:47 | 28.27306 | -81.97777 | 20268 ft | 369 kts | 257° |
| 2026-05-07 18:48 | 28.26712 | -82.00629 | 20896 ft | 372 kts | 257° |
| 2026-05-07 18:48 | 28.26112 | -82.03496 | 21522 ft | 376 kts | 257° |
| 2026-05-07 18:48 | 28.25505 | -82.06402 | 22151 ft | 380 kts | 257° |
| 2026-05-07 18:48 | 28.24893 | -82.09332 | 22778 ft | 383 kts | 257° |
| 2026-05-07 18:49 | 28.24276 | -82.12292 | 23406 ft | 387 kts | 257° |
| 2026-05-07 18:49 | 28.23653 | -82.15285 | 24034 ft | 391 kts | 257° |
| 2026-05-07 18:49 | 28.23039 | -82.18304 | 24661 ft | 395 kts | 258° |
| 2026-05-07 18:49 | 28.22462 | -82.21366 | 25289 ft | 399 kts | 259° |
| 2026-05-07 18:50 | 28.21904 | -82.24462 | 25915 ft | 403 kts | 259° |
| 2026-05-07 18:50 | 28.21360 | -82.27558 | 26535 ft | 407 kts | 259° |
| 2026-05-07 18:50 | 28.20812 | -82.30719 | 27161 ft | 410 kts | 259° |
| 2026-05-07 18:50 | 28.20259 | -82.33933 | 27794 ft | 412 kts | 259° |
| 2026-05-07 18:51 | 28.19717 | -82.37097 | 28413 ft | 414 kts | 259° |
| 2026-05-07 18:51 | 28.19171 | -82.40300 | 29038 ft | 414 kts | 259° |
| 2026-05-07 18:51 | 28.18625 | -82.43510 | 29663 ft | 414 kts | 259° |
| 2026-05-07 18:51 | 28.18082 | -82.46711 | 30287 ft | 414 kts | 259° |
| 2026-05-07 18:52 | 28.17541 | -82.49909 | 30911 ft | 412 kts | 259° |
| 2026-05-07 18:52 | 28.17010 | -82.53050 | 31456 ft | 412 kts | 259° |
| 2026-05-07 18:52 | 28.16459 | -82.56323 | 31806 ft | 417 kts | 260° |
| 2026-05-07 18:52 | 28.15913 | -82.59570 | 32115 ft | 422 kts | 260° |
| 2026-05-07 18:53 | 28.15369 | -82.62819 | 32414 ft | 426 kts | 260° |
| 2026-05-07 18:53 | 28.14817 | -82.66125 | 32716 ft | 429 kts | 260° |
| 2026-05-07 18:53 | 28.14260 | -82.69467 | 33018 ft | 432 kts | 260° |
| 2026-05-07 18:53 | 28.13703 | -82.72823 | 33319 ft | 435 kts | 260° |
| 2026-05-07 18:54 | 28.13142 | -82.76207 | 33620 ft | 437 kts | 260° |
| 2026-05-07 18:54 | 28.12581 | -82.79597 | 33921 ft | 440 kts | 260° |
| 2026-05-07 18:54 | 28.11995 | -82.83015 | 34223 ft | 442 kts | 258° |
| 2026-05-07 18:54 | 28.11307 | -82.86409 | 34529 ft | 443 kts | 257° |
| 2026-05-07 18:55 | 28.10625 | -82.89785 | 34779 ft | 446 kts | 258° |
| 2026-05-07 18:55 | 28.09938 | -82.93227 | 34907 ft | 449 kts | 258° |
| 2026-05-07 18:55 | 28.09252 | -82.96685 | 34982 ft | 451 kts | 258° |
| 2026-05-07 18:56 | 28.07880 | -83.03654 | 34997 ft | 454 kts | 258° |
| 2026-05-07 18:56 | 28.06510 | -83.10658 | 34996 ft | 455 kts | 258° |
| 2026-05-07 18:57 | 28.05154 | -83.17626 | 34996 ft | 456 kts | 258° |
| 2026-05-07 18:57 | 28.03795 | -83.24640 | 34996 ft | 456 kts | 258° |
| 2026-05-07 18:58 | 28.02440 | -83.31663 | 34996 ft | 456 kts | 258° |
| 2026-05-07 18:58 | 28.01091 | -83.38681 | 34996 ft | 456 kts | 258° |
| 2026-05-07 18:59 | 27.99798 | -83.45662 | 34996 ft | 456 kts | 261° |
| 2026-05-07 18:59 | 27.99012 | -83.52784 | 35006 ft | 456 kts | 265° |
| 2026-05-07 19:00 | 27.98498 | -83.59938 | 34997 ft | 456 kts | 266° |
| 2026-05-07 19:00 | 27.98067 | -83.67095 | 34996 ft | 456 kts | 266° |
| 2026-05-07 19:01 | 27.97666 | -83.74217 | 34996 ft | 456 kts | 266° |
| 2026-05-07 19:01 | 27.97276 | -83.81366 | 34996 ft | 456 kts | 266° |
| 2026-05-07 19:02 | 27.96892 | -83.88545 | 34996 ft | 456 kts | 266° |
| 2026-05-07 19:02 | 27.96516 | -83.95705 | 34996 ft | 456 kts | 266° |
| 2026-05-07 19:03 | 27.96147 | -84.02830 | 34996 ft | 456 kts | 267° |
| 2026-05-07 19:03 | 27.95781 | -84.10001 | 34996 ft | 456 kts | 267° |
| 2026-05-07 19:04 | 27.95422 | -84.17162 | 34996 ft | 456 kts | 267° |
| 2026-05-07 19:04 | 27.95069 | -84.24323 | 34996 ft | 456 kts | 267° |
| 2026-05-07 19:05 | 27.94721 | -84.31490 | 34996 ft | 456 kts | 267° |
| 2026-05-07 19:05 | 27.94381 | -84.38610 | 34996 ft | 456 kts | 267° |
| 2026-05-07 19:06 | 27.94045 | -84.45773 | 34996 ft | 456 kts | 267° |
| 2026-05-07 19:06 | 27.93552 | -84.56527 | 34996 ft | 456 kts | 267° |
| 2026-05-07 19:07 | 27.93230 | -84.63689 | 34996 ft | 456 kts | 267° |
| 2026-05-07 19:07 | 27.92914 | -84.70858 | 34996 ft | 456 kts | 267° |
| 2026-05-07 19:08 | 27.92603 | -84.78024 | 34996 ft | 456 kts | 267° |
| 2026-05-07 19:08 | 27.92299 | -84.85177 | 34996 ft | 456 kts | 267° |
| 2026-05-07 19:09 | 27.92002 | -84.92300 | 34996 ft | 456 kts | 267° |
| 2026-05-07 19:09 | 27.91708 | -84.99468 | 34996 ft | 456 kts | 267° |
| 2026-05-07 19:10 | 27.91280 | -85.06618 | 35001 ft | 456 kts | 265° |
| 2026-05-07 19:10 | 27.90629 | -85.13755 | 34997 ft | 456 kts | 264° |
| 2026-05-07 19:11 | 27.89914 | -85.20892 | 34996 ft | 456 kts | 264° |
| 2026-05-07 19:11 | 27.89185 | -85.28028 | 34996 ft | 456 kts | 264° |
| 2026-05-07 19:12 | 27.88877 | -85.35174 | 35002 ft | 456 kts | 271° |
| 2026-05-07 19:12 | 27.89335 | -85.42268 | 35007 ft | 456 kts | 275° |
| 2026-05-07 19:13 | 27.90037 | -85.49407 | 34997 ft | 456 kts | 276° |
| 2026-05-07 19:13 | 27.90814 | -85.56536 | 34996 ft | 456 kts | 277° |
| 2026-05-07 19:14 | 27.91613 | -85.63647 | 34996 ft | 456 kts | 277° |
| 2026-05-07 19:14 | 27.92425 | -85.70762 | 34996 ft | 456 kts | 277° |
| 2026-05-07 19:15 | 27.93239 | -85.77836 | 34996 ft | 456 kts | 277° |
| 2026-05-07 19:15 | 27.94064 | -85.84956 | 34996 ft | 456 kts | 277° |
| 2026-05-07 19:16 | 27.94894 | -85.92068 | 34996 ft | 456 kts | 277° |
| 2026-05-07 19:16 | 27.95723 | -85.99132 | 34996 ft | 456 kts | 277° |
| 2026-05-07 19:17 | 27.96566 | -86.06259 | 34996 ft | 456 kts | 277° |
| 2026-05-07 19:17 | 27.97408 | -86.13333 | 34996 ft | 456 kts | 277° |
| 2026-05-07 19:18 | 27.98259 | -86.20438 | 34996 ft | 456 kts | 277° |
| 2026-05-07 19:18 | 27.99117 | -86.27551 | 34996 ft | 456 kts | 277° |
| 2026-05-07 19:19 | 27.99979 | -86.34660 | 34996 ft | 456 kts | 277° |
| 2026-05-07 19:19 | 28.00849 | -86.41780 | 34996 ft | 456 kts | 277° |
| 2026-05-07 19:20 | 28.01723 | -86.48894 | 34996 ft | 456 kts | 277° |
| 2026-05-07 19:20 | 28.02600 | -86.55992 | 34996 ft | 456 kts | 277° |
| 2026-05-07 19:21 | 28.03486 | -86.63110 | 34996 ft | 456 kts | 277° |
| 2026-05-07 19:21 | 28.04369 | -86.70163 | 34996 ft | 456 kts | 277° |
| 2026-05-07 19:22 | 28.05267 | -86.77292 | 34996 ft | 456 kts | 277° |
| 2026-05-07 19:22 | 28.06167 | -86.84396 | 34996 ft | 456 kts | 278° |
| 2026-05-07 19:23 | 28.07075 | -86.91514 | 34996 ft | 456 kts | 278° |
| 2026-05-07 19:23 | 28.07981 | -86.98583 | 34996 ft | 456 kts | 278° |
| 2026-05-07 19:24 | 28.08899 | -87.05695 | 34996 ft | 456 kts | 278° |
| 2026-05-07 19:24 | 28.09822 | -87.12803 | 34996 ft | 456 kts | 278° |
| 2026-05-07 19:25 | 28.10595 | -87.18724 | 34996 ft | 456 kts | 278° |
| 2026-05-07 19:25 | 28.11527 | -87.25828 | 34996 ft | 456 kts | 278° |
| 2026-05-07 19:26 | 28.12467 | -87.32950 | 34996 ft | 456 kts | 278° |
| 2026-05-07 19:26 | 28.13404 | -87.40011 | 34996 ft | 456 kts | 278° |
| 2026-05-07 19:27 | 28.14292 | -87.47124 | 34997 ft | 456 kts | 276° |
| 2026-05-07 19:27 | 28.14994 | -87.54261 | 34996 ft | 456 kts | 276° |
| 2026-05-07 19:28 | 28.15633 | -87.61407 | 34996 ft | 456 kts | 275° |
| 2026-05-07 19:28 | 28.16258 | -87.68563 | 34996 ft | 456 kts | 275° |
| 2026-05-07 19:29 | 28.16884 | -87.75722 | 34996 ft | 456 kts | 275° |
| 2026-05-07 19:29 | 28.17513 | -87.82875 | 34996 ft | 456 kts | 275° |
| 2026-05-07 19:30 | 28.18146 | -87.90016 | 34996 ft | 456 kts | 275° |
| 2026-05-07 19:30 | 28.18783 | -87.97137 | 34996 ft | 456 kts | 275° |
| 2026-05-07 19:31 | 28.19427 | -88.04284 | 34996 ft | 456 kts | 275° |
| 2026-05-07 19:31 | 28.20077 | -88.11432 | 34996 ft | 456 kts | 275° |
| 2026-05-07 19:32 | 28.20683 | -88.18589 | 34996 ft | 456 kts | 274° |
| 2026-05-07 19:32 | 28.21168 | -88.25723 | 34996 ft | 456 kts | 274° |
| 2026-05-07 19:33 | 28.21617 | -88.32869 | 34996 ft | 456 kts | 274° |
| 2026-05-07 19:33 | 28.22062 | -88.40042 | 34996 ft | 456 kts | 274° |
| 2026-05-07 19:34 | 28.22509 | -88.47236 | 34996 ft | 456 kts | 274° |
| 2026-05-07 19:34 | 28.22960 | -88.54406 | 34996 ft | 456 kts | 274° |
| 2026-05-07 19:35 | 28.23415 | -88.61545 | 34996 ft | 456 kts | 274° |
| 2026-05-07 19:35 | 28.23876 | -88.68706 | 34996 ft | 456 kts | 274° |
| 2026-05-07 19:36 | 28.24344 | -88.75896 | 34996 ft | 456 kts | 274° |
| 2026-05-07 19:36 | 28.24817 | -88.83063 | 34996 ft | 456 kts | 274° |
| 2026-05-07 19:37 | 28.25292 | -88.90194 | 34996 ft | 456 kts | 274° |
| 2026-05-07 19:37 | 28.25612 | -88.97401 | 35002 ft | 456 kts | 271° |
| 2026-05-07 19:38 | 28.25643 | -89.04589 | 34998 ft | 456 kts | 270° |
| 2026-05-07 19:38 | 28.25591 | -89.11784 | 34996 ft | 456 kts | 269° |
| 2026-05-07 19:39 | 28.25519 | -89.18926 | 34996 ft | 456 kts | 269° |
| 2026-05-07 19:39 | 28.25445 | -89.26118 | 34996 ft | 456 kts | 269° |
| 2026-05-07 19:40 | 28.25374 | -89.33321 | 34996 ft | 456 kts | 269° |
| 2026-05-07 19:40 | 28.25308 | -89.40496 | 34996 ft | 456 kts | 269° |
| 2026-05-07 19:41 | 28.25248 | -89.47701 | 34996 ft | 456 kts | 269° |
| 2026-05-07 19:41 | 28.25193 | -89.54893 | 34996 ft | 456 kts | 269° |
| 2026-05-07 19:42 | 28.25144 | -89.62052 | 34996 ft | 456 kts | 269° |
| 2026-05-07 19:42 | 28.25100 | -89.69243 | 34996 ft | 456 kts | 269° |
| 2026-05-07 19:43 | 28.25062 | -89.76400 | 34996 ft | 456 kts | 270° |
| 2026-05-07 19:43 | 28.25030 | -89.83589 | 34996 ft | 456 kts | 270° |
| 2026-05-07 19:44 | 28.25003 | -89.90782 | 34996 ft | 456 kts | 270° |
| 2026-05-07 19:44 | 28.24982 | -89.97963 | 34996 ft | 456 kts | 270° |
| 2026-05-07 19:45 | 28.24966 | -90.05117 | 34996 ft | 456 kts | 270° |
| 2026-05-07 19:45 | 28.24956 | -90.12323 | 34996 ft | 456 kts | 270° |
| 2026-05-07 19:46 | 28.24951 | -90.19510 | 34996 ft | 456 kts | 270° |
| 2026-05-07 19:46 | 28.24952 | -90.26665 | 34996 ft | 456 kts | 270° |
| 2026-05-07 19:47 | 28.24958 | -90.33853 | 34996 ft | 456 kts | 270° |
| 2026-05-07 19:47 | 28.24970 | -90.41061 | 34996 ft | 456 kts | 270° |
| 2026-05-07 19:48 | 28.24987 | -90.48249 | 34996 ft | 456 kts | 270° |
| 2026-05-07 19:48 | 28.25009 | -90.55391 | 34996 ft | 456 kts | 270° |
| 2026-05-07 19:49 | 28.25037 | -90.62601 | 34996 ft | 456 kts | 270° |
| 2026-05-07 19:49 | 28.25071 | -90.69798 | 34996 ft | 456 kts | 270° |
| 2026-05-07 19:50 | 28.25109 | -90.76985 | 34996 ft | 456 kts | 270° |
| 2026-05-07 19:50 | 28.25153 | -90.84134 | 34996 ft | 456 kts | 270° |
| 2026-05-07 19:51 | 28.25203 | -90.91318 | 34996 ft | 456 kts | 270° |
| 2026-05-07 19:51 | 28.25258 | -90.98504 | 34996 ft | 456 kts | 270° |
| 2026-05-07 19:52 | 28.25318 | -91.05694 | 34996 ft | 456 kts | 270° |
| 2026-05-07 19:52 | 28.25384 | -91.12875 | 34996 ft | 456 kts | 270° |
| 2026-05-07 19:53 | 28.25455 | -91.20068 | 34996 ft | 456 kts | 270° |
| 2026-05-07 19:53 | 28.25531 | -91.27222 | 34996 ft | 456 kts | 270° |
| 2026-05-07 19:54 | 28.25613 | -91.34402 | 34996 ft | 456 kts | 271° |
| 2026-05-07 19:54 | 28.25701 | -91.41606 | 34996 ft | 456 kts | 271° |
| 2026-05-07 19:55 | 28.25754 | -91.48803 | 34996 ft | 456 kts | 270° |
| 2026-05-07 19:55 | 28.25682 | -91.55995 | 34996 ft | 456 kts | 269° |
| 2026-05-07 19:56 | 28.25572 | -91.63132 | 34996 ft | 456 kts | 269° |
| 2026-05-07 19:56 | 28.25452 | -91.70321 | 34996 ft | 456 kts | 269° |
| 2026-05-07 19:57 | 28.25335 | -91.77505 | 34996 ft | 456 kts | 269° |
| 2026-05-07 19:57 | 28.25222 | -91.84692 | 34996 ft | 456 kts | 269° |
| 2026-05-07 19:58 | 28.25114 | -91.91878 | 34996 ft | 456 kts | 269° |
| 2026-05-07 19:58 | 28.25011 | -91.99044 | 34996 ft | 456 kts | 269° |
| 2026-05-07 19:59 | 28.24914 | -92.06232 | 34996 ft | 456 kts | 269° |
| 2026-05-07 19:59 | 28.24822 | -92.13409 | 34996 ft | 456 kts | 269° |
| 2026-05-07 20:00 | 28.24734 | -92.20609 | 34996 ft | 456 kts | 269° |
| 2026-05-07 20:00 | 28.24653 | -92.27766 | 34996 ft | 456 kts | 269° |
| 2026-05-07 20:01 | 28.24577 | -92.34956 | 34996 ft | 456 kts | 269° |
| 2026-05-07 20:01 | 28.24462 | -92.42146 | 34997 ft | 456 kts | 268° |
| 2026-05-07 20:02 | 28.24154 | -92.49338 | 34996 ft | 456 kts | 267° |
| 2026-05-07 20:02 | 28.23777 | -92.56487 | 34996 ft | 456 kts | 266° |
| 2026-05-07 20:03 | 28.23380 | -92.63669 | 34996 ft | 456 kts | 266° |
| 2026-05-07 20:03 | 28.22983 | -92.70843 | 34996 ft | 456 kts | 266° |
| 2026-05-07 20:04 | 28.22592 | -92.77968 | 34996 ft | 456 kts | 266° |
| 2026-05-07 20:04 | 28.22203 | -92.85144 | 34996 ft | 456 kts | 266° |
| 2026-05-07 20:05 | 28.21819 | -92.92318 | 34996 ft | 456 kts | 266° |
| 2026-05-07 20:05 | 28.21441 | -92.99495 | 34996 ft | 456 kts | 266° |
| 2026-05-07 20:06 | 28.21068 | -93.06662 | 34996 ft | 456 kts | 266° |
| 2026-05-07 20:06 | 28.20700 | -93.13842 | 34996 ft | 456 kts | 267° |
| 2026-05-07 20:07 | 28.20338 | -93.20982 | 34996 ft | 456 kts | 267° |
| 2026-05-07 20:07 | 28.19981 | -93.28156 | 34996 ft | 456 kts | 267° |
| 2026-05-07 20:08 | 28.19628 | -93.35344 | 34996 ft | 456 kts | 267° |
| 2026-05-07 20:08 | 28.19281 | -93.42508 | 34996 ft | 456 kts | 267° |
| 2026-05-07 20:09 | 28.18938 | -93.49684 | 34996 ft | 456 kts | 267° |
| 2026-05-07 20:10 | 28.18436 | -93.60421 | 34996 ft | 456 kts | 267° |
| 2026-05-07 20:10 | 28.18106 | -93.67601 | 34996 ft | 456 kts | 267° |
| 2026-05-07 20:11 | 28.17782 | -93.74780 | 34996 ft | 456 kts | 267° |
| 2026-05-07 20:11 | 28.17464 | -93.81923 | 34996 ft | 456 kts | 267° |
| 2026-05-07 20:12 | 28.17151 | -93.89097 | 34996 ft | 456 kts | 267° |
| 2026-05-07 20:12 | 28.16842 | -93.96272 | 34996 ft | 456 kts | 267° |
| 2026-05-07 20:13 | 28.16589 | -94.02242 | 34996 ft | 456 kts | 267° |
| 2026-05-07 20:13 | 28.16291 | -94.09413 | 34996 ft | 456 kts | 268° |
| 2026-05-07 20:14 | 28.16405 | -94.16590 | 34900 ft | 457 kts | 273° |
| 2026-05-07 20:14 | 28.16628 | -94.20197 | 34688 ft | 457 kts | 274° |
| 2026-05-07 20:14 | 28.16898 | -94.23794 | 34391 ft | 457 kts | 275° |
| 2026-05-07 20:14 | 28.17192 | -94.27367 | 33974 ft | 456 kts | 275° |
| 2026-05-07 20:15 | 28.17502 | -94.30941 | 33528 ft | 453 kts | 275° |
| 2026-05-07 20:15 | 28.17814 | -94.34447 | 33085 ft | 451 kts | 275° |
| 2026-05-07 20:15 | 28.18132 | -94.37962 | 32636 ft | 448 kts | 275° |
| 2026-05-07 20:15 | 28.18453 | -94.41475 | 32186 ft | 445 kts | 275° |
| 2026-05-07 20:16 | 28.18774 | -94.44959 | 31736 ft | 443 kts | 276° |
| 2026-05-07 20:16 | 28.19094 | -94.48414 | 31286 ft | 439 kts | 276° |
| 2026-05-07 20:16 | 28.19414 | -94.51856 | 30834 ft | 436 kts | 276° |
| 2026-05-07 20:16 | 28.19732 | -94.55257 | 30384 ft | 433 kts | 276° |
| 2026-05-07 20:17 | 28.20051 | -94.58645 | 29933 ft | 429 kts | 276° |
| 2026-05-07 20:17 | 28.20367 | -94.61996 | 29482 ft | 426 kts | 276° |
| 2026-05-07 20:17 | 28.20682 | -94.65322 | 29031 ft | 422 kts | 276° |
| 2026-05-07 20:17 | 28.20992 | -94.68585 | 28586 ft | 419 kts | 276° |
| 2026-05-07 20:18 | 28.21306 | -94.71871 | 28133 ft | 416 kts | 276° |
| 2026-05-07 20:18 | 28.21618 | -94.75124 | 27682 ft | 413 kts | 276° |
| 2026-05-07 20:18 | 28.21924 | -94.78310 | 27236 ft | 409 kts | 276° |
| 2026-05-07 20:18 | 28.22236 | -94.81544 | 26780 ft | 406 kts | 276° |
| 2026-05-07 20:19 | 28.22544 | -94.84714 | 26330 ft | 403 kts | 276° |
| 2026-05-07 20:19 | 28.22850 | -94.87864 | 25880 ft | 400 kts | 276° |
| 2026-05-07 20:19 | 28.23156 | -94.90993 | 25429 ft | 398 kts | 276° |
| 2026-05-07 20:19 | 28.23457 | -94.94067 | 24983 ft | 395 kts | 276° |
| 2026-05-07 20:20 | 28.23761 | -94.97155 | 24533 ft | 392 kts | 276° |
| 2026-05-07 20:20 | 28.24063 | -95.00217 | 24082 ft | 389 kts | 276° |
| 2026-05-07 20:20 | 28.24364 | -95.03255 | 23632 ft | 386 kts | 276° |
| 2026-05-07 20:20 | 28.24665 | -95.06281 | 23180 ft | 383 kts | 276° |
| 2026-05-07 20:21 | 28.24964 | -95.09283 | 22728 ft | 380 kts | 276° |
| 2026-05-07 20:21 | 28.25262 | -95.12251 | 22278 ft | 378 kts | 276° |
| 2026-05-07 20:21 | 28.25558 | -95.15200 | 21827 ft | 375 kts | 276° |
| 2026-05-07 20:21 | 28.25853 | -95.18126 | 21377 ft | 372 kts | 276° |
| 2026-05-07 20:22 | 28.26146 | -95.21027 | 20927 ft | 369 kts | 276° |
| 2026-05-07 20:22 | 28.26435 | -95.23878 | 20481 ft | 366 kts | 276° |
| 2026-05-07 20:22 | 28.26727 | -95.26739 | 20141 ft | 361 kts | 276° |
| 2026-05-07 20:22 | 28.27012 | -95.29523 | 20028 ft | 351 kts | 276° |
| 2026-05-07 20:23 | 28.27291 | -95.32248 | 19995 ft | 344 kts | 276° |
| 2026-05-07 20:23 | 28.27567 | -95.34924 | 19994 ft | 343 kts | 276° |
| 2026-05-07 20:23 | 28.27827 | -95.37627 | 19996 ft | 346 kts | 276° |
| 2026-05-07 20:23 | 28.28076 | -95.40355 | 19997 ft | 349 kts | 275° |
| 2026-05-07 20:24 | 28.28320 | -95.43109 | 19997 ft | 351 kts | 275° |
| 2026-05-07 20:24 | 28.28553 | -95.45876 | 19996 ft | 353 kts | 275° |
| 2026-05-07 20:24 | 28.28766 | -95.48653 | 19996 ft | 354 kts | 274° |
| 2026-05-07 20:24 | 28.28969 | -95.51408 | 19984 ft | 354 kts | 274° |
| 2026-05-07 20:25 | 28.29173 | -95.54207 | 19797 ft | 359 kts | 274° |
| 2026-05-07 20:25 | 28.29377 | -95.57039 | 19554 ft | 360 kts | 274° |
| 2026-05-07 20:25 | 28.29580 | -95.59865 | 19305 ft | 359 kts | 274° |
| 2026-05-07 20:25 | 28.29784 | -95.62688 | 19054 ft | 358 kts | 274° |
| 2026-05-07 20:26 | 28.29990 | -95.65527 | 18800 ft | 355 kts | 274° |
| 2026-05-07 20:26 | 28.30190 | -95.68284 | 18552 ft | 353 kts | 274° |
| 2026-05-07 20:26 | 28.30392 | -95.71049 | 18302 ft | 351 kts | 274° |
| 2026-05-07 20:26 | 28.30594 | -95.73802 | 18125 ft | 347 kts | 274° |
| 2026-05-07 20:27 | 28.30793 | -95.76519 | 18024 ft | 343 kts | 274° |
| 2026-05-07 20:27 | 28.30991 | -95.79196 | 17998 ft | 339 kts | 274° |
| 2026-05-07 20:27 | 28.31189 | -95.81866 | 17999 ft | 339 kts | 274° |
| 2026-05-07 20:27 | 28.31388 | -95.84539 | 18000 ft | 340 kts | 274° |
| 2026-05-07 20:28 | 28.31585 | -95.87189 | 18000 ft | 342 kts | 274° |
| 2026-05-07 20:28 | 28.31789 | -95.89917 | 17945 ft | 344 kts | 274° |
| 2026-05-07 20:28 | 28.31991 | -95.92608 | 17724 ft | 349 kts | 274° |
| 2026-05-07 20:28 | 28.32199 | -95.95367 | 17475 ft | 350 kts | 275° |
| 2026-05-07 20:29 | 28.32406 | -95.98114 | 17225 ft | 349 kts | 275° |
| 2026-05-07 20:29 | 28.32614 | -96.00853 | 16974 ft | 347 kts | 275° |
| 2026-05-07 20:29 | 28.32821 | -96.03576 | 16723 ft | 345 kts | 275° |
| 2026-05-07 20:29 | 28.33027 | -96.06281 | 16472 ft | 342 kts | 275° |
| 2026-05-07 20:30 | 28.33230 | -96.08934 | 16236 ft | 340 kts | 275° |
| 2026-05-07 20:30 | 28.33437 | -96.11622 | 16087 ft | 335 kts | 275° |
| 2026-05-07 20:30 | 28.33637 | -96.14210 | 16013 ft | 331 kts | 275° |
| 2026-05-07 20:30 | 28.33838 | -96.16804 | 16000 ft | 328 kts | 275° |
| 2026-05-07 20:31 | 28.34039 | -96.19388 | 16000 ft | 329 kts | 275° |
| 2026-05-07 20:31 | 28.34241 | -96.21982 | 16001 ft | 330 kts | 275° |
| 2026-05-07 20:31 | 28.34444 | -96.24581 | 16001 ft | 332 kts | 275° |
| 2026-05-07 20:31 | 28.34649 | -96.27198 | 16000 ft | 333 kts | 275° |
| 2026-05-07 20:32 | 28.34856 | -96.29822 | 16000 ft | 333 kts | 275° |
| 2026-05-07 20:32 | 28.35063 | -96.32448 | 16000 ft | 334 kts | 275° |
| 2026-05-07 20:32 | 28.35270 | -96.35070 | 16000 ft | 334 kts | 275° |
| 2026-05-07 20:32 | 28.35479 | -96.37701 | 16000 ft | 334 kts | 275° |
| 2026-05-07 20:33 | 28.35688 | -96.40328 | 16000 ft | 334 kts | 275° |
| 2026-05-07 20:33 | 28.35897 | -96.42954 | 16000 ft | 334 kts | 275° |
| 2026-05-07 20:33 | 28.36107 | -96.45577 | 16000 ft | 334 kts | 275° |
| 2026-05-07 20:33 | 28.36315 | -96.48173 | 16000 ft | 334 kts | 275° |
| 2026-05-07 20:34 | 28.36527 | -96.50803 | 16000 ft | 334 kts | 275° |
| 2026-05-07 20:34 | 28.36739 | -96.53426 | 16000 ft | 334 kts | 275° |
| 2026-05-07 20:34 | 28.36952 | -96.56058 | 16000 ft | 334 kts | 275° |
| 2026-05-07 20:34 | 28.37165 | -96.58680 | 16000 ft | 334 kts | 275° |
| 2026-05-07 20:35 | 28.37378 | -96.61295 | 16000 ft | 334 kts | 275° |
| 2026-05-07 20:35 | 28.37594 | -96.63936 | 16000 ft | 334 kts | 275° |
| 2026-05-07 20:35 | 28.37810 | -96.66567 | 16000 ft | 334 kts | 275° |
| 2026-05-07 20:35 | 28.38026 | -96.69197 | 16000 ft | 334 kts | 275° |
| 2026-05-07 20:36 | 28.38243 | -96.71821 | 16000 ft | 334 kts | 275° |
| 2026-05-07 20:36 | 28.38460 | -96.74454 | 16000 ft | 334 kts | 275° |
| 2026-05-07 20:36 | 28.38676 | -96.77096 | 15833 ft | 339 kts | 274° |
| 2026-05-07 20:36 | 28.38494 | -96.79769 | 15359 ft | 342 kts | 257° |
| 2026-05-07 20:37 | 28.37490 | -96.82186 | 14890 ft | 337 kts | 239° |
| 2026-05-07 20:37 | 28.36015 | -96.84239 | 14428 ft | 333 kts | 230° |
| 2026-05-07 20:37 | 28.34396 | -96.86079 | 13957 ft | 322 kts | 226° |
| 2026-05-07 20:37 | 28.32868 | -96.87665 | 13493 ft | 280 kts | 225° |
| 2026-05-07 20:38 | 28.31490 | -96.89025 | 13011 ft | 249 kts | 224° |
| 2026-05-07 20:38 | 28.30208 | -96.90263 | 12513 ft | 235 kts | 224° |
| 2026-05-07 20:38 | 28.28980 | -96.91439 | 12013 ft | 229 kts | 224° |
| 2026-05-07 20:38 | 28.27768 | -96.92598 | 11511 ft | 226 kts | 224° |
| 2026-05-07 20:39 | 28.26567 | -96.93747 | 11009 ft | 224 kts | 224° |
| 2026-05-07 20:39 | 28.25380 | -96.94881 | 10510 ft | 223 kts | 224° |
| 2026-05-07 20:39 | 28.24202 | -96.96008 | 10010 ft | 221 kts | 224° |
| 2026-05-07 20:39 | 28.23041 | -96.97120 | 9514 ft | 220 kts | 224° |
| 2026-05-07 20:40 | 28.21864 | -96.98246 | 9008 ft | 218 kts | 224° |
| 2026-05-07 20:40 | 28.20725 | -96.99338 | 8514 ft | 216 kts | 224° |
| 2026-05-07 20:40 | 28.19580 | -97.00435 | 8026 ft | 211 kts | 224° |
| 2026-05-07 20:40 | 28.18481 | -97.01483 | 7531 ft | 203 kts | 224° |
| 2026-05-07 20:41 | 28.17406 | -97.02507 | 7030 ft | 200 kts | 224° |
| 2026-05-07 20:41 | 28.16383 | -97.03546 | 6535 ft | 198 kts | 226° |
| 2026-05-07 20:41 | 28.15376 | -97.04614 | 6032 ft | 198 kts | 227° |
| 2026-05-07 20:41 | 28.14369 | -97.05683 | 5530 ft | 199 kts | 227° |
| 2026-05-07 20:42 | 28.13356 | -97.06768 | 5093 ft | 197 kts | 227° |
| 2026-05-07 20:42 | 28.12382 | -97.07827 | 4840 ft | 194 kts | 227° |
| 2026-05-07 20:42 | 28.11411 | -97.08901 | 4591 ft | 196 kts | 227° |
| 2026-05-07 20:42 | 28.10442 | -97.09996 | 4343 ft | 198 kts | 227° |
| 2026-05-07 20:43 | 28.09494 | -97.11110 | 4147 ft | 197 kts | 228° |
| 2026-05-07 20:43 | 28.08552 | -97.12241 | 4037 ft | 197 kts | 228° |
| 2026-05-07 20:43 | 28.07627 | -97.13383 | 4006 ft | 197 kts | 229° |
| 2026-05-07 20:43 | 28.06705 | -97.14542 | 4002 ft | 198 kts | 229° |
| 2026-05-07 20:44 | 28.05781 | -97.15707 | 4001 ft | 199 kts | 229° |
| 2026-05-07 20:44 | 28.04849 | -97.16881 | 4001 ft | 200 kts | 229° |
| 2026-05-07 20:44 | 28.03918 | -97.18059 | 4000 ft | 201 kts | 230° |
| 2026-05-07 20:44 | 28.02978 | -97.19278 | 3987 ft | 210 kts | 230° |
| 2026-05-07 20:45 | 28.02044 | -97.20499 | 4019 ft | 204 kts | 230° |
| 2026-05-07 20:45 | 28.01110 | -97.21719 | 4006 ft | 206 kts | 230° |
| 2026-05-07 20:45 | 28.00166 | -97.22954 | 4002 ft | 208 kts | 230° |
| 2026-05-07 20:45 | 27.99216 | -97.24195 | 4001 ft | 209 kts | 230° |
| 2026-05-07 20:46 | 27.98204 | -97.25391 | 4001 ft | 210 kts | 226° |
| 2026-05-07 20:46 | 27.97137 | -97.26537 | 4001 ft | 211 kts | 224° |
| 2026-05-07 20:46 | 27.96066 | -97.27676 | 4000 ft | 211 kts | 224° |
| 2026-05-07 20:46 | 27.94950 | -97.28767 | 3979 ft | 213 kts | 216° |
| 2026-05-07 20:47 | 27.93535 | -97.29197 | 4011 ft | 218 kts | 186° |
| 2026-05-07 20:47 | 27.91994 | -97.29106 | 4026 ft | 223 kts | 175° |
| 2026-05-07 20:47 | 27.90465 | -97.28966 | 4003 ft | 219 kts | 176° |
| 2026-05-07 20:47 | 27.88946 | -97.28869 | 4000 ft | 217 kts | 177° |
| 2026-05-07 20:48 | 27.87443 | -97.28780 | 3999 ft | 216 kts | 177° |
| 2026-05-07 20:48 | 27.85940 | -97.28691 | 4000 ft | 216 kts | 177° |
| 2026-05-07 20:48 | 27.84448 | -97.28603 | 4000 ft | 215 kts | 177° |
| 2026-05-07 20:48 | 27.82930 | -97.28514 | 3821 ft | 219 kts | 177° |
| 2026-05-07 20:49 | 27.81417 | -97.28429 | 3571 ft | 217 kts | 177° |
| 2026-05-07 20:49 | 27.79917 | -97.28463 | 3320 ft | 214 kts | 182° |
| 2026-05-07 20:49 | 27.78441 | -97.28580 | 3134 ft | 210 kts | 184° |
| 2026-05-07 20:49 | 27.77008 | -97.28704 | 3032 ft | 208 kts | 184° |
| 2026-05-07 20:50 | 27.75567 | -97.28828 | 3004 ft | 207 kts | 184° |
| 2026-05-07 20:50 | 27.74131 | -97.28952 | 3001 ft | 206 kts | 184° |
| 2026-05-07 20:50 | 27.72709 | -97.29085 | 2997 ft | 203 kts | 185° |
| 2026-05-07 20:50 | 27.71336 | -97.29351 | 2995 ft | 201 kts | 192° |
| 2026-05-07 20:51 | 27.69987 | -97.29826 | 3002 ft | 200 kts | 199° |
| 2026-05-07 20:51 | 27.68690 | -97.30395 | 3000 ft | 199 kts | 202° |
| 2026-05-07 20:51 | 27.67445 | -97.31036 | 2998 ft | 199 kts | 206° |
| 2026-05-07 20:51 | 27.66243 | -97.31843 | 2994 ft | 199 kts | 214° |
| 2026-05-07 20:52 | 27.65235 | -97.32872 | 3003 ft | 199 kts | 225° |
| 2026-05-07 20:52 | 27.64317 | -97.34046 | 3004 ft | 199 kts | 229° |
| 2026-05-07 20:52 | 27.63416 | -97.35232 | 3000 ft | 198 kts | 229° |
| 2026-05-07 20:52 | 27.62524 | -97.36414 | 3000 ft | 198 kts | 230° |
| 2026-05-07 20:53 | 27.61664 | -97.37627 | 2994 ft | 198 kts | 234° |
| 2026-05-07 20:53 | 27.61098 | -97.39034 | 2999 ft | 199 kts | 251° |
| 2026-05-07 20:53 | 27.60835 | -97.40574 | 3010 ft | 201 kts | 261° |
| 2026-05-07 20:53 | 27.60696 | -97.42139 | 3002 ft | 200 kts | 265° |
| 2026-05-07 20:54 | 27.60606 | -97.43685 | 2934 ft | 201 kts | 266° |
| 2026-05-07 20:54 | 27.60573 | -97.45257 | 2814 ft | 200 kts | 273° |
| 2026-05-07 20:54 | 27.61045 | -97.46707 | 2813 ft | 199 kts | 297° |
| 2026-05-07 20:54 | 27.61897 | -97.47950 | 2795 ft | 203 kts | 314° |
| 2026-05-07 20:55 | 27.63064 | -97.48877 | 2665 ft | 206 kts | 328° |
| 2026-05-07 20:55 | 27.64399 | -97.49454 | 2377 ft | 207 kts | 346° |
| 2026-05-07 20:55 | 27.65829 | -97.49506 | 2141 ft | 205 kts | 1° |
| 2026-05-07 20:55 | 27.67250 | -97.49427 | 1872 ft | 203 kts | 2° |
| 2026-05-07 20:56 | 27.68638 | -97.49446 | 1582 ft | 201 kts | 358° |
| 2026-05-07 20:56 | 27.70028 | -97.49497 | 1306 ft | 198 kts | 358° |
| 2026-05-07 20:56 | 27.71400 | -97.49516 | 1039 ft | 196 kts | 359° |
| 2026-05-07 20:56 | 27.72756 | -97.49536 | 780 ft | 194 kts | 359° |
| 2026-05-07 20:57 | 27.74103 | -97.49565 | 523 ft | 193 kts | 359° |
| 2026-05-07 20:57 | 27.75444 | -97.49587 | 267 ft | 192 kts | 359° |
| 2026-05-07 20:57 | 27.76764 | -97.49613 | 56 ft | 180 kts | 359° |
| 2026-05-07 20:57 | 27.77716 | -97.49627 | 56 ft | 89 kts | 1° |
| 2026-05-07 20:58 | 27.78128 | -97.49650 | 56 ft | 30 kts | 341° |
| 2026-05-07 20:58 | 27.78185 | -97.49804 | 56 ft | 25 kts | 245° |
| 2026-05-07 20:58 | 27.78101 | -97.49807 | 56 ft | 20 kts | 161° |
| 2026-05-07 20:58 | 27.77893 | -97.49793 | 56 ft | 35 kts | 182° |
| 2026-05-07 20:59 | 27.77644 | -97.49790 | 56 ft | 36 kts | 178° |
| 2026-05-07 20:59 | 27.77531 | -97.49839 | 56 ft | 15 kts | 265° |
| 2026-05-07 20:59 | 27.77510 | -97.49892 | 56 ft | 11 kts | 193° |
| 2026-05-07 20:59 | 27.77372 | -97.49895 | 56 ft | 21 kts | 191° |
| 2026-05-07 21:00 | 27.77321 | -97.50009 | 56 ft | 19 kts | 285° |
| 2026-05-07 21:00 | 27.77363 | -97.50117 | 56 ft | 11 kts | 271° |
| 2026-05-07 21:00 | 27.77363 | -97.50159 | 56 ft | 0 kts | 271° |